Pine Neck, New York
Current Conditions -  °F | °C
As of 2:53 PM on Friday 24 Oct 2014 (Local Time) from KFOK Reporting Station
Overcast Overcast  
Wind Chill: 13°   Ceiling: 2900
Heat Index: 13°   Visibility: 10mi
Dew Point:   Wind: 14mph
Humidity: 67%   Direction: 300°WNW
Pressure: 29.76"   Gusts: NA
Location:  40.9692°N, 72.306°W
Report Text: KFOK 241853Z 30012KT 10SM OVC029 13/07 A2976 RMK AO2 SLP077 T01280067
Loading
Personal Weather Stations






























Interactive Weather Map
Tropical Storm Tracking
New forecast layout! Learn more

10-Day Weather Forecast

Advertisements
Track Severe Weather on mobile